sensor_id;sensor_type;location;lat;lon;timestamp;temperature;humidity
17489;DHT22;8861;52.644;4.734;2023-05-10T00:01:45;12.60;99.90
17489;DHT22;8861;52.644;4.734;2023-05-10T00:04:12;12.50;99.90
17489;DHT22;8861;52.644;4.734;2023-05-10T00:06:39;12.50;99.90
17489;DHT22;8861;52.644;4.734;2023-05-10T00:09:06;12.50;99.90
17489;DHT22;8861;52.644;4.734;2023-05-10T00:11:33;12.40;99.90
17489;DHT22;8861;52.644;4.734;2023-05-10T00:14:00;12.40;99.90
17489;DHT22;8861;52.644;4.734;2023-05-10T00:16:28;12.40;99.90
17489;DHT22;8861;52.644;4.734;2023-05-10T00:18:55;12.40;99.90
17489;DHT22;8861;52.644;4.734;2023-05-10T00:21:22;12.30;99.90
17489;DHT22;8861;52.644;4.734;2023-05-10T00:23:49;12.30;99.90
17489;DHT22;8861;52.644;4.734;2023-05-10T00:26:16;12.30;99.90
17489;DHT22;8861;52.644;4.734;2023-05-10T00:28:43;12.40;99.90
17489;DHT22;8861;52.644;4.734;2023-05-10T00:31:10;12.40;99.90
17489;DHT22;8861;52.644;4.734;2023-05-10T00:33:38;12.40;99.90
17489;DHT22;8861;52.644;4.734;2023-05-10T00:36:06;12.50;99.90
17489;DHT22;8861;52.644;4.734;2023-05-10T00:38:34;12.40;99.90
17489;DHT22;8861;52.644;4.734;2023-05-10T00:41:01;12.50;99.90
17489;DHT22;8861;52.644;4.734;2023-05-10T00:43:28;12.50;99.90
17489;DHT22;8861;52.644;4.734;2023-05-10T00:45:55;12.50;99.90
17489;DHT22;8861;52.644;4.734;2023-05-10T00:48:22;12.50;99.90
17489;DHT22;8861;52.644;4.734;2023-05-10T00:50:50;12.50;99.90
17489;DHT22;8861;52.644;4.734;2023-05-10T00:53:17;12.50;99.90
17489;DHT22;8861;52.644;4.734;2023-05-10T00:55:45;12.50;99.90
17489;DHT22;8861;52.644;4.734;2023-05-10T00:58:12;12.50;99.90
17489;DHT22;8861;52.644;4.734;2023-05-10T01:00:41;12.60;99.90
17489;DHT22;8861;52.644;4.734;2023-05-10T01:03:10;12.60;99.90
17489;DHT22;8861;52.644;4.734;2023-05-10T01:05:37;12.60;99.90
17489;DHT22;8861;52.644;4.734;2023-05-10T01:08:06;12.60;99.90
17489;DHT22;8861;52.644;4.734;2023-05-10T01:10:34;12.50;99.90
17489;DHT22;8861;52.644;4.734;2023-05-10T01:13:01;12.50;99.90
17489;DHT22;8861;52.644;4.734;2023-05-10T01:15:29;12.50;99.90
17489;DHT22;8861;52.644;4.734;2023-05-10T01:17:56;12.50;99.90
17489;DHT22;8861;52.644;4.734;2023-05-10T01:20:24;12.50;99.90
17489;DHT22;8861;52.644;4.734;2023-05-10T01:23:13;12.50;99.90
17489;DHT22;8861;52.644;4.734;2023-05-10T01:28:51;12.50;99.90
17489;DHT22;8861;52.644;4.734;2023-05-10T01:31:38;12.50;99.90
17489;DHT22;8861;52.644;4.734;2023-05-10T01:34:12;12.50;99.90
17489;DHT22;8861;52.644;4.734;2023-05-10T01:36:45;12.50;99.90
17489;DHT22;8861;52.644;4.734;2023-05-10T01:39:17;12.50;99.90
17489;DHT22;8861;52.644;4.734;2023-05-10T01:41:50;12.40;99.90
17489;DHT22;8861;52.644;4.734;2023-05-10T01:44:27;12.50;99.90
17489;DHT22;8861;52.644;4.734;2023-05-10T01:47:01;12.40;99.90
17489;DHT22;8861;52.644;4.734;2023-05-10T01:49:37;12.40;99.90
17489;DHT22;8861;52.644;4.734;2023-05-10T01:52:09;12.40;99.90
17489;DHT22;8861;52.644;4.734;2023-05-10T01:54:38;12.30;99.90
17489;DHT22;8861;52.644;4.734;2023-05-10T01:57:08;12.30;99.90
17489;DHT22;8861;52.644;4.734;2023-05-10T01:59:38;12.30;99.90
17489;DHT22;8861;52.644;4.734;2023-05-10T02:02:07;12.30;99.90
17489;DHT22;8861;52.644;4.734;2023-05-10T02:04:39;12.20;99.90
17489;DHT22;8861;52.644;4.734;2023-05-10T02:07:08;12.20;99.90
17489;DHT22;8861;52.644;4.734;2023-05-10T02:09:37;12.20;99.90
17489;DHT22;8861;52.644;4.734;2023-05-10T02:12:05;12.20;99.90
17489;DHT22;8861;52.644;4.734;2023-05-10T02:14:36;12.20;99.90
17489;DHT22;8861;52.644;4.734;2023-05-10T02:17:05;12.10;99.90
17489;DHT22;8861;52.644;4.734;2023-05-10T02:19:32;12.00;99.90
17489;DHT22;8861;52.644;4.734;2023-05-10T02:22:02;12.00;99.90
17489;DHT22;8861;52.644;4.734;2023-05-10T02:24:30;12.00;99.90
17489;DHT22;8861;52.644;4.734;2023-05-10T02:26:59;12.00;99.90
17489;DHT22;8861;52.644;4.734;2023-05-10T02:29:27;11.90;99.90
17489;DHT22;8861;52.644;4.734;2023-05-10T02:31:56;11.90;99.90
17489;DHT22;8861;52.644;4.734;2023-05-10T02:34:26;11.90;99.90
17489;DHT22;8861;52.644;4.734;2023-05-10T02:36:55;11.90;99.90
17489;DHT22;8861;52.644;4.734;2023-05-10T02:39:24;11.90;99.90
17489;DHT22;8861;52.644;4.734;2023-05-10T02:41:54;11.80;99.90
17489;DHT22;8861;52.644;4.734;2023-05-10T02:44:22;11.80;99.90
17489;DHT22;8861;52.644;4.734;2023-05-10T02:46:50;11.80;99.90
17489;DHT22;8861;52.644;4.734;2023-05-10T02:49:19;11.70;99.90
17489;DHT22;8861;52.644;4.734;2023-05-10T02:51:50;11.70;99.90
17489;DHT22;8861;52.644;4.734;2023-05-10T02:54:20;11.70;99.90
17489;DHT22;8861;52.644;4.734;2023-05-10T02:56:51;11.70;99.90
17489;DHT22;8861;52.644;4.734;2023-05-10T02:59:20;11.60;99.90
17489;DHT22;8861;52.644;4.734;2023-05-10T03:01:47;11.70;99.90
17489;DHT22;8861;52.644;4.734;2023-05-10T03:04:14;11.60;99.90
17489;DHT22;8861;52.644;4.734;2023-05-10T03:06:41;11.60;99.90
17489;DHT22;8861;52.644;4.734;2023-05-10T03:09:09;11.60;99.90
17489;DHT22;8861;52.644;4.734;2023-05-10T03:11:47;11.60;99.90
17489;DHT22;8861;52.644;4.734;2023-05-10T03:14:34;11.60;99.90
17489;DHT22;8861;52.644;4.734;2023-05-10T03:17:11;11.60;99.90
17489;DHT22;8861;52.644;4.734;2023-05-10T03:19:46;11.60;99.90
17489;DHT22;8861;52.644;4.734;2023-05-10T03:22:24;11.60;99.90
17489;DHT22;8861;52.644;4.734;2023-05-10T03:24:54;11.60;99.90
17489;DHT22;8861;52.644;4.734;2023-05-10T03:27:22;11.60;99.90
17489;DHT22;8861;52.644;4.734;2023-05-10T03:29:53;11.60;99.90
17489;DHT22;8861;52.644;4.734;2023-05-10T03:32:22;11.60;99.90
17489;DHT22;8861;52.644;4.734;2023-05-10T03:34:49;11.60;99.90
17489;DHT22;8861;52.644;4.734;2023-05-10T03:37:15;11.60;99.90
17489;DHT22;8861;52.644;4.734;2023-05-10T03:39:42;11.70;99.90
17489;DHT22;8861;52.644;4.734;2023-05-10T03:42:09;11.70;99.90
17489;DHT22;8861;52.644;4.734;2023-05-10T03:44:37;11.70;99.90
17489;DHT22;8861;52.644;4.734;2023-05-10T03:47:06;11.70;99.90
17489;DHT22;8861;52.644;4.734;2023-05-10T03:49:33;11.70;99.90
17489;DHT22;8861;52.644;4.734;2023-05-10T03:51:59;11.70;99.90
17489;DHT22;8861;52.644;4.734;2023-05-10T03:54:26;11.80;99.90
17489;DHT22;8861;52.644;4.734;2023-05-10T03:56:53;11.80;99.90
17489;DHT22;8861;52.644;4.734;2023-05-10T03:59:20;11.80;99.90
17489;DHT22;8861;52.644;4.734;2023-05-10T04:01:47;11.80;99.90
17489;DHT22;8861;52.644;4.734;2023-05-10T04:04:15;11.80;99.90
17489;DHT22;8861;52.644;4.734;2023-05-10T04:06:44;11.80;99.90
17489;DHT22;8861;52.644;4.734;2023-05-10T04:09:11;11.80;99.90
17489;DHT22;8861;52.644;4.734;2023-05-10T04:11:38;11.80;99.90
17489;DHT22;8861;52.644;4.734;2023-05-10T04:14:05;11.80;99.90
17489;DHT22;8861;52.644;4.734;2023-05-10T04:16:32;11.80;99.90
17489;DHT22;8861;52.644;4.734;2023-05-10T04:18:58;11.80;99.90
17489;DHT22;8861;52.644;4.734;2023-05-10T04:21:27;11.80;99.90
17489;DHT22;8861;52.644;4.734;2023-05-10T04:23:54;11.80;99.90
17489;DHT22;8861;52.644;4.734;2023-05-10T04:26:21;11.90;99.90
17489;DHT22;8861;52.644;4.734;2023-05-10T04:28:48;11.90;99.90
17489;DHT22;8861;52.644;4.734;2023-05-10T04:31:15;11.90;99.90
17489;DHT22;8861;52.644;4.734;2023-05-10T04:33:41;11.90;99.90
17489;DHT22;8861;52.644;4.734;2023-05-10T04:36:09;11.90;99.90
17489;DHT22;8861;52.644;4.734;2023-05-10T04:38:37;11.90;99.90
17489;DHT22;8861;52.644;4.734;2023-05-10T04:41:04;12.00;99.90
17489;DHT22;8861;52.644;4.734;2023-05-10T04:43:31;12.00;99.90
17489;DHT22;8861;52.644;4.734;2023-05-10T04:45:58;12.00;99.90
17489;DHT22;8861;52.644;4.734;2023-05-10T04:48:25;12.00;99.90
17489;DHT22;8861;52.644;4.734;2023-05-10T04:50:52;12.10;99.90
17489;DHT22;8861;52.644;4.734;2023-05-10T04:53:19;12.10;99.90
17489;DHT22;8861;52.644;4.734;2023-05-10T04:55:47;12.20;99.90
17489;DHT22;8861;52.644;4.734;2023-05-10T04:58:15;12.20;99.90
17489;DHT22;8861;52.644;4.734;2023-05-10T05:00:41;12.20;99.90
17489;DHT22;8861;52.644;4.734;2023-05-10T05:03:09;12.20;99.90
17489;DHT22;8861;52.644;4.734;2023-05-10T05:05:36;12.20;99.90
17489;DHT22;8861;52.644;4.734;2023-05-10T05:08:03;12.30;99.90
17489;DHT22;8861;52.644;4.734;2023-05-10T05:10:30;12.30;99.90
17489;DHT22;8861;52.644;4.734;2023-05-10T05:12:58;12.30;99.90
17489;DHT22;8861;52.644;4.734;2023-05-10T05:15:25;12.40;99.90
17489;DHT22;8861;52.644;4.734;2023-05-10T05:17:53;12.50;99.90
17489;DHT22;8861;52.644;4.734;2023-05-10T05:20:20;12.50;99.90
17489;DHT22;8861;52.644;4.734;2023-05-10T05:22:47;12.50;99.90
17489;DHT22;8861;52.644;4.734;2023-05-10T05:25:13;12.50;99.90
17489;DHT22;8861;52.644;4.734;2023-05-10T05:27:41;12.50;99.90
17489;DHT22;8861;52.644;4.734;2023-05-10T05:30:10;12.50;99.90
17489;DHT22;8861;52.644;4.734;2023-05-10T05:32:37;12.50;99.90
17489;DHT22;8861;52.644;4.734;2023-05-10T05:35:04;12.60;99.90
17489;DHT22;8861;52.644;4.734;2023-05-10T05:37:31;12.60;99.90
17489;DHT22;8861;52.644;4.734;2023-05-10T05:39:58;12.60;99.90
17489;DHT22;8861;52.644;4.734;2023-05-10T05:42:27;12.60;99.90
17489;DHT22;8861;52.644;4.734;2023-05-10T05:44:54;12.60;99.90
17489;DHT22;8861;52.644;4.734;2023-05-10T05:47:22;12.70;99.90
17489;DHT22;8861;52.644;4.734;2023-05-10T05:49:49;12.60;99.90
17489;DHT22;8861;52.644;4.734;2023-05-10T05:52:16;12.70;99.90
17489;DHT22;8861;52.644;4.734;2023-05-10T05:54:43;12.70;99.90
17489;DHT22;8861;52.644;4.734;2023-05-10T05:57:10;12.70;99.90
17489;DHT22;8861;52.644;4.734;2023-05-10T05:59:37;12.70;99.90
17489;DHT22;8861;52.644;4.734;2023-05-10T06:02:07;12.80;99.90
17489;DHT22;8861;52.644;4.734;2023-05-10T06:04:35;12.80;99.90
17489;DHT22;8861;52.644;4.734;2023-05-10T06:07:02;12.90;99.90
17489;DHT22;8861;52.644;4.734;2023-05-10T06:09:29;12.90;99.90
17489;DHT22;8861;52.644;4.734;2023-05-10T06:11:56;13.10;99.90
17489;DHT22;8861;52.644;4.734;2023-05-10T06:14:23;13.20;99.90
17489;DHT22;8861;52.644;4.734;2023-05-10T06:16:50;13.30;99.90
17489;DHT22;8861;52.644;4.734;2023-05-10T06:19:17;13.40;99.90
17489;DHT22;8861;52.644;4.734;2023-05-10T06:21:45;13.40;99.90
17489;DHT22;8861;52.644;4.734;2023-05-10T06:24:12;13.40;99.90
17489;DHT22;8861;52.644;4.734;2023-05-10T06:26:39;13.30;99.90
17489;DHT22;8861;52.644;4.734;2023-05-10T06:29:06;13.30;99.90
17489;DHT22;8861;52.644;4.734;2023-05-10T06:31:33;13.30;99.90
17489;DHT22;8861;52.644;4.734;2023-05-10T06:34:00;13.40;99.90
17489;DHT22;8861;52.644;4.734;2023-05-10T06:36:27;13.50;99.90
17489;DHT22;8861;52.644;4.734;2023-05-10T06:38:55;13.50;99.90
17489;DHT22;8861;52.644;4.734;2023-05-10T06:41:22;13.60;99.90
17489;DHT22;8861;52.644;4.734;2023-05-10T06:43:49;13.70;99.90
17489;DHT22;8861;52.644;4.734;2023-05-10T06:46:16;13.70;99.90
17489;DHT22;8861;52.644;4.734;2023-05-10T06:48:43;13.70;99.90
17489;DHT22;8861;52.644;4.734;2023-05-10T06:51:10;13.70;99.90
17489;DHT22;8861;52.644;4.734;2023-05-10T06:53:37;13.70;99.90
17489;DHT22;8861;52.644;4.734;2023-05-10T06:56:05;13.70;99.90
17489;DHT22;8861;52.644;4.734;2023-05-10T06:58:33;13.80;99.90
17489;DHT22;8861;52.644;4.734;2023-05-10T07:01:03;13.80;99.90
17489;DHT22;8861;52.644;4.734;2023-05-10T07:03:30;13.90;99.90
17489;DHT22;8861;52.644;4.734;2023-05-10T07:06:00;13.80;99.90
17489;DHT22;8861;52.644;4.734;2023-05-10T07:08:28;13.80;99.90
17489;DHT22;8861;52.644;4.734;2023-05-10T07:11:00;13.80;99.90
17489;DHT22;8861;52.644;4.734;2023-05-10T07:13:28;13.70;99.90
17489;DHT22;8861;52.644;4.734;2023-05-10T07:15:55;13.70;99.90
17489;DHT22;8861;52.644;4.734;2023-05-10T07:18:22;13.80;99.90
17489;DHT22;8861;52.644;4.734;2023-05-10T07:20:49;13.90;99.90
17489;DHT22;8861;52.644;4.734;2023-05-10T07:23:16;13.90;99.90
17489;DHT22;8861;52.644;4.734;2023-05-10T07:25:45;14.00;99.90
17489;DHT22;8861;52.644;4.734;2023-05-10T07:28:12;14.20;99.90
17489;DHT22;8861;52.644;4.734;2023-05-10T07:30:40;14.40;99.90
17489;DHT22;8861;52.644;4.734;2023-05-10T07:33:08;14.60;99.90
17489;DHT22;8861;52.644;4.734;2023-05-10T07:35:36;14.70;99.90
17489;DHT22;8861;52.644;4.734;2023-05-10T07:38:03;14.90;99.90
17489;DHT22;8861;52.644;4.734;2023-05-10T07:40:30;15.00;99.90
17489;DHT22;8861;52.644;4.734;2023-05-10T07:42:57;15.00;99.90
17489;DHT22;8861;52.644;4.734;2023-05-10T07:45:24;15.00;99.90
17489;DHT22;8861;52.644;4.734;2023-05-10T07:47:52;15.10;99.90
17489;DHT22;8861;52.644;4.734;2023-05-10T07:50:19;15.30;99.90
17489;DHT22;8861;52.644;4.734;2023-05-10T07:52:46;15.40;99.90
17489;DHT22;8861;52.644;4.734;2023-05-10T07:55:14;15.50;99.90
17489;DHT22;8861;52.644;4.734;2023-05-10T07:57:42;15.60;99.90
17489;DHT22;8861;52.644;4.734;2023-05-10T08:00:11;15.70;99.90
17489;DHT22;8861;52.644;4.734;2023-05-10T08:02:38;15.70;99.90
17489;DHT22;8861;52.644;4.734;2023-05-10T08:05:07;15.60;99.90
17489;DHT22;8861;52.644;4.734;2023-05-10T08:07:35;15.60;99.90
17489;DHT22;8861;52.644;4.734;2023-05-10T08:10:02;15.60;99.90
17489;DHT22;8861;52.644;4.734;2023-05-10T08:12:29;15.80;99.90
17489;DHT22;8861;52.644;4.734;2023-05-10T08:14:56;16.00;99.90
17489;DHT22;8861;52.644;4.734;2023-05-10T08:17:23;16.20;99.90
17489;DHT22;8861;52.644;4.734;2023-05-10T08:19:50;16.20;99.90
17489;DHT22;8861;52.644;4.734;2023-05-10T08:22:18;16.30;99.90
17489;DHT22;8861;52.644;4.734;2023-05-10T08:24:45;16.40;99.90
17489;DHT22;8861;52.644;4.734;2023-05-10T08:27:12;16.60;99.90
17489;DHT22;8861;52.644;4.734;2023-05-10T08:29:39;16.50;99.90
17489;DHT22;8861;52.644;4.734;2023-05-10T08:32:06;16.50;99.90
17489;DHT22;8861;52.644;4.734;2023-05-10T08:34:33;16.50;99.90
17489;DHT22;8861;52.644;4.734;2023-05-10T08:37:00;16.60;99.90
17489;DHT22;8861;52.644;4.734;2023-05-10T08:39:28;16.80;99.90
17489;DHT22;8861;52.644;4.734;2023-05-10T08:41:58;17.00;99.90
17489;DHT22;8861;52.644;4.734;2023-05-10T08:44:29;17.10;99.90
17489;DHT22;8861;52.644;4.734;2023-05-10T08:46:57;17.10;99.90
17489;DHT22;8861;52.644;4.734;2023-05-10T08:49:27;16.90;99.90
17489;DHT22;8861;52.644;4.734;2023-05-10T08:51:57;16.60;99.90
17489;DHT22;8861;52.644;4.734;2023-05-10T08:54:27;16.30;99.90
17489;DHT22;8861;52.644;4.734;2023-05-10T08:56:56;16.00;99.90
17489;DHT22;8861;52.644;4.734;2023-05-10T08:59:23;16.00;99.90
17489;DHT22;8861;52.644;4.734;2023-05-10T09:01:50;16.20;99.90
17489;DHT22;8861;52.644;4.734;2023-05-10T09:04:19;16.60;99.90
17489;DHT22;8861;52.644;4.734;2023-05-10T09:06:47;16.80;99.90
17489;DHT22;8861;52.644;4.734;2023-05-10T09:09:14;17.00;99.90
17489;DHT22;8861;52.644;4.734;2023-05-10T09:11:43;16.90;99.90
17489;DHT22;8861;52.644;4.734;2023-05-10T09:14:12;17.00;99.90
17489;DHT22;8861;52.644;4.734;2023-05-10T09:16:40;17.10;99.90
17489;DHT22;8861;52.644;4.734;2023-05-10T09:19:08;17.10;99.90
17489;DHT22;8861;52.644;4.734;2023-05-10T09:21:36;17.00;99.90
17489;DHT22;8861;52.644;4.734;2023-05-10T09:24:04;17.00;99.90
17489;DHT22;8861;52.644;4.734;2023-05-10T09:26:31;16.90;99.90
17489;DHT22;8861;52.644;4.734;2023-05-10T09:29:00;16.80;99.90
17489;DHT22;8861;52.644;4.734;2023-05-10T09:31:44;16.70;99.90
17489;DHT22;8861;52.644;4.734;2023-05-10T09:34:15;16.70;99.90
17489;DHT22;8861;52.644;4.734;2023-05-10T09:36:53;16.80;99.90
17489;DHT22;8861;52.644;4.734;2023-05-10T09:39:20;16.70;99.90
17489;DHT22;8861;52.644;4.734;2023-05-10T09:41:47;16.70;99.90
17489;DHT22;8861;52.644;4.734;2023-05-10T09:44:18;16.70;99.90
17489;DHT22;8861;52.644;4.734;2023-05-10T09:46:50;16.70;99.90
17489;DHT22;8861;52.644;4.734;2023-05-10T09:49:18;16.70;99.90
17489;DHT22;8861;52.644;4.734;2023-05-10T09:51:45;16.40;99.90
17489;DHT22;8861;52.644;4.734;2023-05-10T09:54:13;16.40;99.90
17489;DHT22;8861;52.644;4.734;2023-05-10T09:56:41;16.50;99.90
17489;DHT22;8861;52.644;4.734;2023-05-10T09:59:10;16.70;99.90
17489;DHT22;8861;52.644;4.734;2023-05-10T10:01:39;16.70;99.90
17489;DHT22;8861;52.644;4.734;2023-05-10T10:04:07;16.60;99.90
17489;DHT22;8861;52.644;4.734;2023-05-10T10:06:37;16.50;99.90
17489;DHT22;8861;52.644;4.734;2023-05-10T10:09:05;16.50;99.90
17489;DHT22;8861;52.644;4.734;2023-05-10T10:11:34;16.50;99.90
17489;DHT22;8861;52.644;4.734;2023-05-10T10:14:01;16.50;99.90
17489;DHT22;8861;52.644;4.734;2023-05-10T10:16:29;16.60;99.90
17489;DHT22;8861;52.644;4.734;2023-05-10T10:18:58;16.40;99.90
17489;DHT22;8861;52.644;4.734;2023-05-10T10:21:25;16.40;99.90
17489;DHT22;8861;52.644;4.734;2023-05-10T10:23:53;16.40;99.90
17489;DHT22;8861;52.644;4.734;2023-05-10T10:26:21;16.30;99.90
17489;DHT22;8861;52.644;4.734;2023-05-10T10:28:54;16.30;99.90
17489;DHT22;8861;52.644;4.734;2023-05-10T10:31:27;16.20;99.90
17489;DHT22;8861;52.644;4.734;2023-05-10T10:34:05;16.40;99.90
17489;DHT22;8861;52.644;4.734;2023-05-10T10:36:39;16.50;99.90
17489;DHT22;8861;52.644;4.734;2023-05-10T10:39:09;16.70;99.90
17489;DHT22;8861;52.644;4.734;2023-05-10T10:41:37;16.90;99.90
17489;DHT22;8861;52.644;4.734;2023-05-10T10:44:39;17.10;99.90
17489;DHT22;8861;52.644;4.734;2023-05-10T10:47:31;17.20;99.90
17489;DHT22;8861;52.644;4.734;2023-05-10T10:50:05;17.60;99.90
17489;DHT22;8861;52.644;4.734;2023-05-10T10:52:33;17.90;99.90
17489;DHT22;8861;52.644;4.734;2023-05-10T10:55:03;18.10;99.90
17489;DHT22;8861;52.644;4.734;2023-05-10T10:57:43;18.30;99.90
17489;DHT22;8861;52.644;4.734;2023-05-10T11:00:25;18.40;99.90
17489;DHT22;8861;52.644;4.734;2023-05-10T11:02:54;18.40;99.90
17489;DHT22;8861;52.644;4.734;2023-05-10T11:05:48;18.50;99.90
17489;DHT22;8861;52.644;4.734;2023-05-10T11:08:17;18.70;99.90
17489;DHT22;8861;52.644;4.734;2023-05-10T11:10:52;18.70;99.90
17489;DHT22;8861;52.644;4.734;2023-05-10T11:13:30;18.70;99.90
17489;DHT22;8861;52.644;4.734;2023-05-10T11:15:57;18.70;99.90
17489;DHT22;8861;52.644;4.734;2023-05-10T11:18:26;18.80;99.90
17489;DHT22;8861;52.644;4.734;2023-05-10T11:20:57;18.70;99.90
17489;DHT22;8861;52.644;4.734;2023-05-10T11:23:30;18.80;99.90
17489;DHT22;8861;52.644;4.734;2023-05-10T11:25:58;18.90;99.90
17489;DHT22;8861;52.644;4.734;2023-05-10T11:28:26;19.00;99.90
17489;DHT22;8861;52.644;4.734;2023-05-10T11:30:53;19.10;99.90
17489;DHT22;8861;52.644;4.734;2023-05-10T11:33:21;19.40;99.90
17489;DHT22;8861;52.644;4.734;2023-05-10T11:35:48;19.70;99.90
17489;DHT22;8861;52.644;4.734;2023-05-10T11:38:16;20.00;99.90
17489;DHT22;8861;52.644;4.734;2023-05-10T11:40:43;20.30;99.90
17489;DHT22;8861;52.644;4.734;2023-05-10T11:43:10;20.30;99.90
17489;DHT22;8861;52.644;4.734;2023-05-10T11:45:38;20.20;99.90
17489;DHT22;8861;52.644;4.734;2023-05-10T11:48:06;20.30;99.90
17489;DHT22;8861;52.644;4.734;2023-05-10T11:50:34;20.30;99.90
17489;DHT22;8861;52.644;4.734;2023-05-10T11:53:01;20.20;99.90
17489;DHT22;8861;52.644;4.734;2023-05-10T11:55:29;20.20;99.90
17489;DHT22;8861;52.644;4.734;2023-05-10T11:58:01;20.10;99.90
17489;DHT22;8861;52.644;4.734;2023-05-10T12:00:28;19.80;99.90
17489;DHT22;8861;52.644;4.734;2023-05-10T12:02:56;19.50;99.90
17489;DHT22;8861;52.644;4.734;2023-05-10T12:05:23;19.30;99.90
17489;DHT22;8861;52.644;4.734;2023-05-10T12:07:51;19.40;99.90
17489;DHT22;8861;52.644;4.734;2023-05-10T12:10:25;19.50;99.90
17489;DHT22;8861;52.644;4.734;2023-05-10T12:12:53;19.50;99.90
17489;DHT22;8861;52.644;4.734;2023-05-10T12:15:21;19.50;99.90
17489;DHT22;8861;52.644;4.734;2023-05-10T12:17:49;19.70;99.90
17489;DHT22;8861;52.644;4.734;2023-05-10T12:20:17;20.00;99.90
17489;DHT22;8861;52.644;4.734;2023-05-10T12:22:50;20.00;99.90
17489;DHT22;8861;52.644;4.734;2023-05-10T12:25:18;20.00;99.90
17489;DHT22;8861;52.644;4.734;2023-05-10T12:27:50;20.10;99.90
17489;DHT22;8861;52.644;4.734;2023-05-10T12:30:22;20.30;99.90
17489;DHT22;8861;52.644;4.734;2023-05-10T12:32:49;20.40;99.90
17489;DHT22;8861;52.644;4.734;2023-05-10T12:35:17;20.70;99.90
17489;DHT22;8861;52.644;4.734;2023-05-10T12:37:47;20.80;99.90
17489;DHT22;8861;52.644;4.734;2023-05-10T12:40:14;20.90;99.90
17489;DHT22;8861;52.644;4.734;2023-05-10T12:42:41;20.90;99.90
17489;DHT22;8861;52.644;4.734;2023-05-10T12:45:10;20.90;99.90
17489;DHT22;8861;52.644;4.734;2023-05-10T12:47:39;21.00;99.90
17489;DHT22;8861;52.644;4.734;2023-05-10T12:50:06;21.40;99.90
17489;DHT22;8861;52.644;4.734;2023-05-10T12:52:33;21.60;99.90
17489;DHT22;8861;52.644;4.734;2023-05-10T12:55:00;21.40;99.90
17489;DHT22;8861;52.644;4.734;2023-05-10T12:57:28;21.30;99.90
17489;DHT22;8861;52.644;4.734;2023-05-10T12:59:56;21.10;99.90
17489;DHT22;8861;52.644;4.734;2023-05-10T13:02:23;21.20;99.90
17489;DHT22;8861;52.644;4.734;2023-05-10T13:04:51;21.30;99.90
17489;DHT22;8861;52.644;4.734;2023-05-10T13:07:18;21.50;99.90
17489;DHT22;8861;52.644;4.734;2023-05-10T13:09:45;21.80;99.90
17489;DHT22;8861;52.644;4.734;2023-05-10T13:12:12;22.20;99.90
17489;DHT22;8861;52.644;4.734;2023-05-10T13:14:39;22.40;99.90
17489;DHT22;8861;52.644;4.734;2023-05-10T13:17:07;22.30;99.90
17489;DHT22;8861;52.644;4.734;2023-05-10T13:19:34;22.20;99.90
17489;DHT22;8861;52.644;4.734;2023-05-10T13:22:03;22.10;99.90
17489;DHT22;8861;52.644;4.734;2023-05-10T13:24:30;22.30;99.90
17489;DHT22;8861;52.644;4.734;2023-05-10T13:26:56;22.30;99.90
17489;DHT22;8861;52.644;4.734;2023-05-10T13:29:23;22.40;99.90
17489;DHT22;8861;52.644;4.734;2023-05-10T13:31:50;22.30;99.90
17489;DHT22;8861;52.644;4.734;2023-05-10T13:34:17;22.10;99.90
17489;DHT22;8861;52.644;4.734;2023-05-10T13:36:46;22.00;99.90
17489;DHT22;8861;52.644;4.734;2023-05-10T13:39:14;21.70;99.90
17489;DHT22;8861;52.644;4.734;2023-05-10T13:41:42;21.40;99.90
17489;DHT22;8861;52.644;4.734;2023-05-10T13:44:08;21.10;99.90
17489;DHT22;8861;52.644;4.734;2023-05-10T13:46:37;21.00;99.90
17489;DHT22;8861;52.644;4.734;2023-05-10T13:49:04;20.90;99.90
17489;DHT22;8861;52.644;4.734;2023-05-10T13:51:31;21.00;99.90
17489;DHT22;8861;52.644;4.734;2023-05-10T13:53:58;21.20;99.90
17489;DHT22;8861;52.644;4.734;2023-05-10T13:56:26;21.60;99.90
17489;DHT22;8861;52.644;4.734;2023-05-10T13:58:53;21.90;99.90
17489;DHT22;8861;52.644;4.734;2023-05-10T14:01:20;22.20;99.90
17489;DHT22;8861;52.644;4.734;2023-05-10T14:03:47;22.50;99.90
17489;DHT22;8861;52.644;4.734;2023-05-10T14:06:14;22.80;99.90
17489;DHT22;8861;52.644;4.734;2023-05-10T14:08:41;23.00;99.90
17489;DHT22;8861;52.644;4.734;2023-05-10T14:11:08;23.10;99.90
17489;DHT22;8861;52.644;4.734;2023-05-10T14:13:36;23.50;99.90
17489;DHT22;8861;52.644;4.734;2023-05-10T14:16:03;24.00;99.90
17489;DHT22;8861;52.644;4.734;2023-05-10T14:18:30;24.60;99.90
17489;DHT22;8861;52.644;4.734;2023-05-10T14:20:57;25.00;99.90
17489;DHT22;8861;52.644;4.734;2023-05-10T14:23:25;25.20;99.90
17489;DHT22;8861;52.644;4.734;2023-05-10T14:25:54;25.10;99.90
17489;DHT22;8861;52.644;4.734;2023-05-10T14:28:21;24.90;99.90
17489;DHT22;8861;52.644;4.734;2023-05-10T14:30:50;24.80;99.90
17489;DHT22;8861;52.644;4.734;2023-05-10T14:33:17;25.10;99.90
17489;DHT22;8861;52.644;4.734;2023-05-10T14:35:45;25.00;99.90
17489;DHT22;8861;52.644;4.734;2023-05-10T14:38:12;24.60;99.90
17489;DHT22;8861;52.644;4.734;2023-05-10T14:40:39;24.20;99.90
17489;DHT22;8861;52.644;4.734;2023-05-10T14:43:06;23.80;99.90
17489;DHT22;8861;52.644;4.734;2023-05-10T14:45:33;23.80;99.90
17489;DHT22;8861;52.644;4.734;2023-05-10T14:48:01;24.10;99.90
17489;DHT22;8861;52.644;4.734;2023-05-10T14:50:30;24.60;99.90
17489;DHT22;8861;52.644;4.734;2023-05-10T14:52:57;24.90;99.90
17489;DHT22;8861;52.644;4.734;2023-05-10T14:55:24;24.50;99.90
17489;DHT22;8861;52.644;4.734;2023-05-10T14:57:51;23.70;99.90
17489;DHT22;8861;52.644;4.734;2023-05-10T15:00:18;22.90;99.90
17489;DHT22;8861;52.644;4.734;2023-05-10T15:02:45;22.30;99.90
17489;DHT22;8861;52.644;4.734;2023-05-10T15:05:14;21.80;99.90
17489;DHT22;8861;52.644;4.734;2023-05-10T15:07:41;21.10;99.90
17489;DHT22;8861;52.644;4.734;2023-05-10T15:10:09;20.40;99.90
17489;DHT22;8861;52.644;4.734;2023-05-10T15:12:37;19.90;99.90
17489;DHT22;8861;52.644;4.734;2023-05-10T15:15:05;19.60;99.90
17489;DHT22;8861;52.644;4.734;2023-05-10T15:17:32;19.20;99.90
17489;DHT22;8861;52.644;4.734;2023-05-10T15:19:59;19.10;99.90
17489;DHT22;8861;52.644;4.734;2023-05-10T15:22:29;19.10;99.90
17489;DHT22;8861;52.644;4.734;2023-05-10T15:24:57;19.00;99.90
17489;DHT22;8861;52.644;4.734;2023-05-10T15:27:24;19.30;99.90
17489;DHT22;8861;52.644;4.734;2023-05-10T15:29:51;19.40;99.90
17489;DHT22;8861;52.644;4.734;2023-05-10T15:32:17;19.40;99.90
17489;DHT22;8861;52.644;4.734;2023-05-10T15:34:44;19.40;99.90
17489;DHT22;8861;52.644;4.734;2023-05-10T15:37:11;19.60;99.90
17489;DHT22;8861;52.644;4.734;2023-05-10T15:39:41;19.70;99.90
17489;DHT22;8861;52.644;4.734;2023-05-10T15:42:08;20.40;99.90
17489;DHT22;8861;52.644;4.734;2023-05-10T15:44:35;22.30;99.90
17489;DHT22;8861;52.644;4.734;2023-05-10T15:47:04;24.30;99.90
17489;DHT22;8861;52.644;4.734;2023-05-10T15:49:31;25.80;99.90
17489;DHT22;8861;52.644;4.734;2023-05-10T15:51:59;27.00;99.90
17489;DHT22;8861;52.644;4.734;2023-05-10T15:54:26;27.40;99.90
17489;DHT22;8861;52.644;4.734;2023-05-10T15:56:54;27.90;99.90